sensor_id;sensor_type;location;lat;lon;timestamp;P1;durP1;ratioP1;P2;durP2;ratioP2
37805;SDS011;25082;50.870;0.022;2024-02-28T00:00:00;7.72;;;1.50;;
37805;SDS011;25082;50.870;0.022;2024-02-28T00:02:26;5.05;;;1.25;;
37805;SDS011;25082;50.870;0.022;2024-02-28T00:04:53;2.58;;;0.85;;
37805;SDS011;25082;50.870;0.022;2024-02-28T00:07:19;5.15;;;0.73;;
37805;SDS011;25082;50.870;0.022;2024-02-28T00:09:44;3.35;;;0.77;;
37805;SDS011;25082;50.870;0.022;2024-02-28T00:12:10;2.78;;;1.10;;
37805;SDS011;25082;50.870;0.022;2024-02-28T00:14:36;2.45;;;0.73;;
37805;SDS011;25082;50.870;0.022;2024-02-28T00:17:02;6.93;;;0.90;;
37805;SDS011;25082;50.870;0.022;2024-02-28T00:19:28;5.45;;;1.58;;
37805;SDS011;25082;50.870;0.022;2024-02-28T00:21:54;4.47;;;1.13;;
37805;SDS011;25082;50.870;0.022;2024-02-28T00:24:19;3.88;;;1.00;;
37805;SDS011;25082;50.870;0.022;2024-02-28T00:26:45;2.40;;;0.80;;
37805;SDS011;25082;50.870;0.022;2024-02-28T00:29:11;2.78;;;1.30;;
37805;SDS011;25082;50.870;0.022;2024-02-28T00:31:37;4.55;;;1.33;;
37805;SDS011;25082;50.870;0.022;2024-02-28T00:34:02;2.67;;;0.85;;
37805;SDS011;25082;50.870;0.022;2024-02-28T00:36:28;5.75;;;1.30;;
37805;SDS011;25082;50.870;0.022;2024-02-28T00:38:54;4.25;;;0.90;;
37805;SDS011;25082;50.870;0.022;2024-02-28T00:41:20;5.50;;;0.93;;
37805;SDS011;25082;50.870;0.022;2024-02-28T00:43:45;3.38;;;1.20;;
37805;SDS011;25082;50.870;0.022;2024-02-28T00:46:11;3.08;;;0.80;;
37805;SDS011;25082;50.870;0.022;2024-02-28T00:48:40;4.35;;;1.70;;
37805;SDS011;25082;50.870;0.022;2024-02-28T00:51:06;2.05;;;0.80;;
37805;SDS011;25082;50.870;0.022;2024-02-28T00:53:33;5.07;;;1.58;;
37805;SDS011;25082;50.870;0.022;2024-02-28T00:55:59;9.23;;;1.30;;
37805;SDS011;25082;50.870;0.022;2024-02-28T00:58:25;3.55;;;1.63;;
37805;SDS011;25082;50.870;0.022;2024-02-28T01:00:53;4.18;;;1.20;;
37805;SDS011;25082;50.870;0.022;2024-02-28T01:03:19;4.03;;;1.20;;
37805;SDS011;25082;50.870;0.022;2024-02-28T01:05:45;3.75;;;1.50;;
37805;SDS011;25082;50.870;0.022;2024-02-28T01:08:11;4.72;;;1.30;;
37805;SDS011;25082;50.870;0.022;2024-02-28T01:10:37;4.55;;;1.40;;
37805;SDS011;25082;50.870;0.022;2024-02-28T01:13:03;4.90;;;1.85;;
37805;SDS011;25082;50.870;0.022;2024-02-28T01:15:29;2.45;;;0.77;;
37805;SDS011;25082;50.870;0.022;2024-02-28T01:17:55;5.30;;;1.50;;
37805;SDS011;25082;50.870;0.022;2024-02-28T01:20:20;3.22;;;1.20;;
37805;SDS011;25082;50.870;0.022;2024-02-28T01:22:46;5.43;;;1.02;;
37805;SDS011;25082;50.870;0.022;2024-02-28T01:25:12;3.60;;;1.05;;
37805;SDS011;25082;50.870;0.022;2024-02-28T01:27:38;4.20;;;1.20;;
37805;SDS011;25082;50.870;0.022;2024-02-28T01:30:05;4.13;;;1.45;;
37805;SDS011;25082;50.870;0.022;2024-02-28T01:32:31;4.20;;;1.38;;
37805;SDS011;25082;50.870;0.022;2024-02-28T01:34:57;3.88;;;1.17;;
37805;SDS011;25082;50.870;0.022;2024-02-28T01:37:23;4.28;;;1.38;;
37805;SDS011;25082;50.870;0.022;2024-02-28T01:39:49;3.85;;;1.23;;
37805;SDS011;25082;50.870;0.022;2024-02-28T01:42:15;4.88;;;1.63;;
37805;SDS011;25082;50.870;0.022;2024-02-28T01:44:44;3.08;;;1.27;;
37805;SDS011;25082;50.870;0.022;2024-02-28T01:47:12;4.43;;;1.23;;
37805;SDS011;25082;50.870;0.022;2024-02-28T01:49:38;4.38;;;1.30;;
37805;SDS011;25082;50.870;0.022;2024-02-28T01:52:06;5.60;;;0.90;;
37805;SDS011;25082;50.870;0.022;2024-02-28T01:54:34;7.32;;;1.45;;
37805;SDS011;25082;50.870;0.022;2024-02-28T01:57:09;3.90;;;1.20;;
37805;SDS011;25082;50.870;0.022;2024-02-28T01:59:35;5.55;;;1.50;;
37805;SDS011;25082;50.870;0.022;2024-02-28T02:02:02;5.10;;;1.20;;
37805;SDS011;25082;50.870;0.022;2024-02-28T02:04:28;4.28;;;1.27;;
37805;SDS011;25082;50.870;0.022;2024-02-28T02:06:54;3.60;;;1.35;;
37805;SDS011;25082;50.870;0.022;2024-02-28T02:09:23;3.90;;;1.15;;
37805;SDS011;25082;50.870;0.022;2024-02-28T02:11:50;2.70;;;1.02;;
37805;SDS011;25082;50.870;0.022;2024-02-28T02:14:16;5.68;;;1.55;;
37805;SDS011;25082;50.870;0.022;2024-02-28T02:16:42;4.68;;;1.25;;
37805;SDS011;25082;50.870;0.022;2024-02-28T02:19:08;2.95;;;0.90;;
37805;SDS011;25082;50.870;0.022;2024-02-28T02:21:37;6.13;;;1.23;;
37805;SDS011;25082;50.870;0.022;2024-02-28T02:24:08;5.60;;;1.60;;
37805;SDS011;25082;50.870;0.022;2024-02-28T02:26:34;2.85;;;1.05;;
37805;SDS011;25082;50.870;0.022;2024-02-28T02:29:00;6.68;;;1.33;;
37805;SDS011;25082;50.870;0.022;2024-02-28T02:31:26;7.60;;;1.25;;
37805;SDS011;25082;50.870;0.022;2024-02-28T02:33:51;9.18;;;2.15;;
37805;SDS011;25082;50.870;0.022;2024-02-28T02:36:17;4.05;;;1.13;;
37805;SDS011;25082;50.870;0.022;2024-02-28T02:38:43;7.20;;;1.65;;
37805;SDS011;25082;50.870;0.022;2024-02-28T02:41:08;5.38;;;1.00;;
37805;SDS011;25082;50.870;0.022;2024-02-28T02:43:34;4.72;;;1.48;;
37805;SDS011;25082;50.870;0.022;2024-02-28T02:46:00;5.45;;;1.35;;
37805;SDS011;25082;50.870;0.022;2024-02-28T02:48:26;3.78;;;1.08;;
37805;SDS011;25082;50.870;0.022;2024-02-28T02:50:51;5.40;;;1.55;;
37805;SDS011;25082;50.870;0.022;2024-02-28T02:53:17;4.40;;;1.50;;
37805;SDS011;25082;50.870;0.022;2024-02-28T02:55:44;6.30;;;1.85;;
37805;SDS011;25082;50.870;0.022;2024-02-28T02:58:10;5.35;;;1.60;;
37805;SDS011;25082;50.870;0.022;2024-02-28T03:00:35;6.07;;;1.63;;
37805;SDS011;25082;50.870;0.022;2024-02-28T03:03:01;3.40;;;1.40;;
37805;SDS011;25082;50.870;0.022;2024-02-28T03:05:27;6.43;;;1.67;;
37805;SDS011;25082;50.870;0.022;2024-02-28T03:07:53;4.20;;;1.48;;
37805;SDS011;25082;50.870;0.022;2024-02-28T03:10:18;4.20;;;1.10;;
37805;SDS011;25082;50.870;0.022;2024-02-28T03:12:44;7.28;;;1.40;;
37805;SDS011;25082;50.870;0.022;2024-02-28T03:15:10;7.38;;;1.42;;
37805;SDS011;25082;50.870;0.022;2024-02-28T03:17:36;5.00;;;1.50;;
37805;SDS011;25082;50.870;0.022;2024-02-28T03:20:02;5.00;;;1.77;;
37805;SDS011;25082;50.870;0.022;2024-02-28T03:22:30;5.43;;;1.58;;
37805;SDS011;25082;50.870;0.022;2024-02-28T03:24:56;6.57;;;1.88;;
37805;SDS011;25082;50.870;0.022;2024-02-28T03:27:21;4.88;;;1.60;;
37805;SDS011;25082;50.870;0.022;2024-02-28T03:29:47;7.00;;;1.65;;
37805;SDS011;25082;50.870;0.022;2024-02-28T03:32:13;4.13;;;1.33;;
37805;SDS011;25082;50.870;0.022;2024-02-28T03:34:39;5.47;;;1.63;;
37805;SDS011;25082;50.870;0.022;2024-02-28T03:37:05;6.53;;;1.70;;
37805;SDS011;25082;50.870;0.022;2024-02-28T03:39:31;6.32;;;2.47;;
37805;SDS011;25082;50.870;0.022;2024-02-28T03:41:56;4.22;;;1.20;;
37805;SDS011;25082;50.870;0.022;2024-02-28T03:44:22;5.13;;;1.10;;
37805;SDS011;25082;50.870;0.022;2024-02-28T03:46:48;3.83;;;1.20;;
37805;SDS011;25082;50.870;0.022;2024-02-28T03:49:14;4.05;;;1.60;;
37805;SDS011;25082;50.870;0.022;2024-02-28T03:51:40;5.50;;;1.30;;
37805;SDS011;25082;50.870;0.022;2024-02-28T03:54:06;2.75;;;1.05;;
37805;SDS011;25082;50.870;0.022;2024-02-28T03:56:32;5.20;;;1.73;;
37805;SDS011;25082;50.870;0.022;2024-02-28T03:58:58;10.38;;;1.73;;
37805;SDS011;25082;50.870;0.022;2024-02-28T04:01:23;5.10;;;1.75;;
37805;SDS011;25082;50.870;0.022;2024-02-28T04:03:49;3.72;;;1.92;;
37805;SDS011;25082;50.870;0.022;2024-02-28T04:06:15;4.38;;;1.85;;
37805;SDS011;25082;50.870;0.022;2024-02-28T04:08:41;3.75;;;1.30;;
37805;SDS011;25082;50.870;0.022;2024-02-28T04:11:07;4.90;;;1.80;;
37805;SDS011;25082;50.870;0.022;2024-02-28T04:13:33;5.75;;;1.45;;
37805;SDS011;25082;50.870;0.022;2024-02-28T04:15:58;3.58;;;1.20;;
37805;SDS011;25082;50.870;0.022;2024-02-28T04:18:24;3.63;;;1.40;;
37805;SDS011;25082;50.870;0.022;2024-02-28T04:20:50;4.40;;;1.25;;
37805;SDS011;25082;50.870;0.022;2024-02-28T04:23:16;4.90;;;1.08;;
37805;SDS011;25082;50.870;0.022;2024-02-28T04:25:42;5.07;;;1.60;;
37805;SDS011;25082;50.870;0.022;2024-02-28T04:28:08;8.98;;;2.40;;
37805;SDS011;25082;50.870;0.022;2024-02-28T04:30:34;7.40;;;2.60;;
37805;SDS011;25082;50.870;0.022;2024-02-28T04:33:00;4.60;;;1.58;;
37805;SDS011;25082;50.870;0.022;2024-02-28T04:35:25;5.53;;;1.60;;
37805;SDS011;25082;50.870;0.022;2024-02-28T04:37:52;5.10;;;1.73;;
37805;SDS011;25082;50.870;0.022;2024-02-28T04:40:18;4.50;;;1.00;;
37805;SDS011;25082;50.870;0.022;2024-02-28T04:42:43;2.40;;;1.23;;
37805;SDS011;25082;50.870;0.022;2024-02-28T04:45:09;3.38;;;1.27;;
37805;SDS011;25082;50.870;0.022;2024-02-28T04:47:36;3.78;;;1.02;;
37805;SDS011;25082;50.870;0.022;2024-02-28T04:50:03;5.13;;;1.40;;
37805;SDS011;25082;50.870;0.022;2024-02-28T04:52:32;5.03;;;1.75;;
37805;SDS011;25082;50.870;0.022;2024-02-28T04:54:58;3.15;;;1.92;;
37805;SDS011;25082;50.870;0.022;2024-02-28T04:57:25;4.40;;;1.50;;
37805;SDS011;25082;50.870;0.022;2024-02-28T04:59:51;2.78;;;1.42;;
37805;SDS011;25082;50.870;0.022;2024-02-28T05:02:17;4.60;;;1.40;;
37805;SDS011;25082;50.870;0.022;2024-02-28T05:04:43;7.18;;;1.98;;
37805;SDS011;25082;50.870;0.022;2024-02-28T05:07:09;3.42;;;1.05;;
37805;SDS011;25082;50.870;0.022;2024-02-28T05:09:35;4.75;;;1.55;;
37805;SDS011;25082;50.870;0.022;2024-02-28T05:12:04;3.67;;;1.30;;
37805;SDS011;25082;50.870;0.022;2024-02-28T05:14:29;4.70;;;1.40;;
37805;SDS011;25082;50.870;0.022;2024-02-28T05:16:55;3.30;;;1.45;;
37805;SDS011;25082;50.870;0.022;2024-02-28T05:19:21;3.78;;;1.33;;
37805;SDS011;25082;50.870;0.022;2024-02-28T05:21:47;3.65;;;1.25;;
37805;SDS011;25082;50.870;0.022;2024-02-28T05:24:13;2.95;;;1.17;;
37805;SDS011;25082;50.870;0.022;2024-02-28T05:26:39;2.60;;;1.35;;
37805;SDS011;25082;50.870;0.022;2024-02-28T05:29:05;4.30;;;1.40;;
37805;SDS011;25082;50.870;0.022;2024-02-28T05:31:31;3.45;;;1.30;;
37805;SDS011;25082;50.870;0.022;2024-02-28T05:33:58;2.08;;;1.20;;
37805;SDS011;25082;50.870;0.022;2024-02-28T05:36:25;4.90;;;1.27;;
37805;SDS011;25082;50.870;0.022;2024-02-28T05:38:52;2.35;;;1.02;;
37805;SDS011;25082;50.870;0.022;2024-02-28T05:41:19;3.08;;;1.25;;
37805;SDS011;25082;50.870;0.022;2024-02-28T05:43:46;2.92;;;1.20;;
37805;SDS011;25082;50.870;0.022;2024-02-28T05:46:12;3.45;;;1.27;;
37805;SDS011;25082;50.870;0.022;2024-02-28T05:48:42;4.28;;;1.52;;
37805;SDS011;25082;50.870;0.022;2024-02-28T05:51:08;3.65;;;1.60;;
37805;SDS011;25082;50.870;0.022;2024-02-28T05:53:35;3.30;;;1.30;;
37805;SDS011;25082;50.870;0.022;2024-02-28T05:56:01;4.50;;;1.45;;
37805;SDS011;25082;50.870;0.022;2024-02-28T05:58:28;3.80;;;1.40;;
37805;SDS011;25082;50.870;0.022;2024-02-28T06:00:54;3.13;;;1.27;;
37805;SDS011;25082;50.870;0.022;2024-02-28T06:03:19;5.70;;;2.45;;
37805;SDS011;25082;50.870;0.022;2024-02-28T06:05:45;3.10;;;1.02;;
37805;SDS011;25082;50.870;0.022;2024-02-28T06:08:14;1.75;;;0.95;;
37805;SDS011;25082;50.870;0.022;2024-02-28T06:10:40;3.40;;;1.17;;
37805;SDS011;25082;50.870;0.022;2024-02-28T06:13:11;3.97;;;1.37;;
37805;SDS011;25082;50.870;0.022;2024-02-28T06:15:38;1.98;;;1.00;;
37805;SDS011;25082;50.870;0.022;2024-02-28T06:18:04;6.28;;;1.73;;
37805;SDS011;25082;50.870;0.022;2024-02-28T06:20:30;3.65;;;1.38;;
37805;SDS011;25082;50.870;0.022;2024-02-28T06:22:56;4.05;;;1.17;;
37805;SDS011;25082;50.870;0.022;2024-02-28T06:25:22;2.72;;;1.20;;
37805;SDS011;25082;50.870;0.022;2024-02-28T06:27:49;3.55;;;1.27;;
37805;SDS011;25082;50.870;0.022;2024-02-28T06:30:16;3.58;;;1.25;;
37805;SDS011;25082;50.870;0.022;2024-02-28T06:32:42;2.55;;;1.30;;
37805;SDS011;25082;50.870;0.022;2024-02-28T06:35:08;2.60;;;1.25;;
37805;SDS011;25082;50.870;0.022;2024-02-28T06:37:34;4.25;;;1.15;;
37805;SDS011;25082;50.870;0.022;2024-02-28T06:40:00;4.47;;;1.17;;
37805;SDS011;25082;50.870;0.022;2024-02-28T06:42:29;2.50;;;1.40;;
37805;SDS011;25082;50.870;0.022;2024-02-28T06:44:55;3.40;;;1.30;;
37805;SDS011;25082;50.870;0.022;2024-02-28T06:47:20;4.22;;;1.65;;
37805;SDS011;25082;50.870;0.022;2024-02-28T06:49:46;1.67;;;1.13;;
37805;SDS011;25082;50.870;0.022;2024-02-28T06:52:13;3.30;;;1.23;;
37805;SDS011;25082;50.870;0.022;2024-02-28T06:54:39;4.93;;;1.80;;
37805;SDS011;25082;50.870;0.022;2024-02-28T06:57:04;2.58;;;0.90;;
37805;SDS011;25082;50.870;0.022;2024-02-28T06:59:30;5.55;;;1.38;;
37805;SDS011;25082;50.870;0.022;2024-02-28T07:01:56;2.50;;;1.52;;
37805;SDS011;25082;50.870;0.022;2024-02-28T07:04:22;3.85;;;1.58;;
37805;SDS011;25082;50.870;0.022;2024-02-28T07:06:48;3.08;;;1.52;;
37805;SDS011;25082;50.870;0.022;2024-02-28T07:09:14;4.05;;;1.50;;
37805;SDS011;25082;50.870;0.022;2024-02-28T07:11:40;3.22;;;1.52;;
37805;SDS011;25082;50.870;0.022;2024-02-28T07:14:06;3.42;;;1.30;;
37805;SDS011;25082;50.870;0.022;2024-02-28T07:16:32;2.97;;;1.15;;
37805;SDS011;25082;50.870;0.022;2024-02-28T07:18:59;2.35;;;1.00;;
37805;SDS011;25082;50.870;0.022;2024-02-28T07:21:26;2.50;;;1.10;;
37805;SDS011;25082;50.870;0.022;2024-02-28T07:23:52;3.10;;;1.00;;
37805;SDS011;25082;50.870;0.022;2024-02-28T07:26:17;4.10;;;1.55;;
37805;SDS011;25082;50.870;0.022;2024-02-28T07:28:43;2.95;;;1.38;;
37805;SDS011;25082;50.870;0.022;2024-02-28T07:31:18;3.30;;;0.95;;
37805;SDS011;25082;50.870;0.022;2024-02-28T07:33:44;2.08;;;1.05;;
37805;SDS011;25082;50.870;0.022;2024-02-28T07:36:10;2.17;;;1.33;;
37805;SDS011;25082;50.870;0.022;2024-02-28T07:38:37;1.73;;;1.17;;
37805;SDS011;25082;50.870;0.022;2024-02-28T07:41:08;1.27;;;0.80;;
37805;SDS011;25082;50.870;0.022;2024-02-28T07:43:34;1.98;;;1.20;;
37805;SDS011;25082;50.870;0.022;2024-02-28T07:46:11;1.45;;;1.02;;
37805;SDS011;25082;50.870;0.022;2024-02-28T07:48:38;2.28;;;1.13;;
37805;SDS011;25082;50.870;0.022;2024-02-28T07:51:04;3.10;;;1.38;;
37805;SDS011;25082;50.870;0.022;2024-02-28T07:53:31;1.77;;;1.05;;
37805;SDS011;25082;50.870;0.022;2024-02-28T07:55:57;1.70;;;1.13;;
37805;SDS011;25082;50.870;0.022;2024-02-28T07:58:23;1.20;;;0.80;;
37805;SDS011;25082;50.870;0.022;2024-02-28T08:00:49;1.77;;;1.02;;
37805;SDS011;25082;50.870;0.022;2024-02-28T08:03:17;2.38;;;1.10;;
37805;SDS011;25082;50.870;0.022;2024-02-28T08:05:43;0.82;;;0.60;;
37805;SDS011;25082;50.870;0.022;2024-02-28T08:08:10;1.48;;;0.88;;
37805;SDS011;25082;50.870;0.022;2024-02-28T08:10:37;1.40;;;0.90;;
37805;SDS011;25082;50.870;0.022;2024-02-28T08:13:03;1.65;;;1.10;;
37805;SDS011;25082;50.870;0.022;2024-02-28T08:15:29;1.90;;;1.10;;
37805;SDS011;25082;50.870;0.022;2024-02-28T08:17:56;2.25;;;1.08;;
37805;SDS011;25082;50.870;0.022;2024-02-28T08:20:23;2.25;;;1.23;;
37805;SDS011;25082;50.870;0.022;2024-02-28T08:22:49;1.45;;;1.00;;
37805;SDS011;25082;50.870;0.022;2024-02-28T08:25:15;3.42;;;1.10;;
37805;SDS011;25082;50.870;0.022;2024-02-28T08:27:41;3.00;;;1.00;;
37805;SDS011;25082;50.870;0.022;2024-02-28T08:30:07;1.35;;;0.80;;
37805;SDS011;25082;50.870;0.022;2024-02-28T08:32:33;1.98;;;0.70;;
37805;SDS011;25082;50.870;0.022;2024-02-28T08:34:59;1.55;;;1.10;;
37805;SDS011;25082;50.870;0.022;2024-02-28T08:37:25;1.70;;;0.90;;
37805;SDS011;25082;50.870;0.022;2024-02-28T08:39:54;0.88;;;0.65;;
37805;SDS011;25082;50.870;0.022;2024-02-28T08:42:26;3.47;;;0.95;;
37805;SDS011;25082;50.870;0.022;2024-02-28T08:44:52;0.82;;;0.70;;
37805;SDS011;25082;50.870;0.022;2024-02-28T08:47:23;0.90;;;0.70;;
37805;SDS011;25082;50.870;0.022;2024-02-28T08:49:49;1.42;;;0.70;;
37805;SDS011;25082;50.870;0.022;2024-02-28T08:52:15;1.05;;;0.68;;
37805;SDS011;25082;50.870;0.022;2024-02-28T08:54:41;2.58;;;1.05;;
37805;SDS011;25082;50.870;0.022;2024-02-28T08:57:07;2.28;;;1.00;;
37805;SDS011;25082;50.870;0.022;2024-02-28T08:59:32;1.23;;;0.65;;
37805;SDS011;25082;50.870;0.022;2024-02-28T09:01:58;1.33;;;0.70;;
37805;SDS011;25082;50.870;0.022;2024-02-28T09:04:24;1.23;;;0.55;;
37805;SDS011;25082;50.870;0.022;2024-02-28T09:06:50;0.75;;;0.60;;
37805;SDS011;25082;50.870;0.022;2024-02-28T09:09:18;1.40;;;0.50;;
37805;SDS011;25082;50.870;0.022;2024-02-28T09:11:44;0.82;;;0.50;;
37805;SDS011;25082;50.870;0.022;2024-02-28T09:14:10;2.65;;;1.00;;
37805;SDS011;25082;50.870;0.022;2024-02-28T09:16:35;0.80;;;0.38;;
37805;SDS011;25082;50.870;0.022;2024-02-28T09:19:02;1.20;;;0.30;;
37805;SDS011;25082;50.870;0.022;2024-02-28T09:21:29;0.60;;;0.30;;
37805;SDS011;25082;50.870;0.022;2024-02-28T09:23:54;0.75;;;0.40;;
37805;SDS011;25082;50.870;0.022;2024-02-28T09:26:20;0.75;;;0.40;;
37805;SDS011;25082;50.870;0.022;2024-02-28T09:28:46;1.38;;;0.30;;
37805;SDS011;25082;50.870;0.022;2024-02-28T09:31:12;1.15;;;0.60;;
37805;SDS011;25082;50.870;0.022;2024-02-28T09:33:37;2.08;;;0.40;;
37805;SDS011;25082;50.870;0.022;2024-02-28T09:36:04;0.63;;;0.38;;
37805;SDS011;25082;50.870;0.022;2024-02-28T09:38:30;1.67;;;0.30;;
37805;SDS011;25082;50.870;0.022;2024-02-28T09:40:58;0.98;;;0.35;;
37805;SDS011;25082;50.870;0.022;2024-02-28T09:43:28;1.52;;;0.57;;
37805;SDS011;25082;50.870;0.022;2024-02-28T09:46:05;2.38;;;0.30;;
37805;SDS011;25082;50.870;0.022;2024-02-28T09:48:32;2.00;;;0.28;;
37805;SDS011;25082;50.870;0.022;2024-02-28T09:50:59;1.98;;;0.40;;
37805;SDS011;25082;50.870;0.022;2024-02-28T09:53:28;0.63;;;0.30;;
37805;SDS011;25082;50.870;0.022;2024-02-28T09:55:54;1.02;;;0.40;;
37805;SDS011;25082;50.870;0.022;2024-02-28T09:58:20;1.65;;;0.50;;
37805;SDS011;25082;50.870;0.022;2024-02-28T10:00:48;15.75;;;2.05;;
37805;SDS011;25082;50.870;0.022;2024-02-28T10:03:17;43.13;;;5.70;;
37805;SDS011;25082;50.870;0.022;2024-02-28T10:05:44;55.15;;;6.10;;
37805;SDS011;25082;50.870;0.022;2024-02-28T10:08:11;52.22;;;6.68;;
37805;SDS011;25082;50.870;0.022;2024-02-28T10:10:44;47.97;;;5.05;;
37805;SDS011;25082;50.870;0.022;2024-02-28T10:13:13;42.53;;;4.90;;
37805;SDS011;25082;50.870;0.022;2024-02-28T10:15:42;44.67;;;5.30;;
37805;SDS011;25082;50.870;0.022;2024-02-28T10:18:07;34.15;;;4.55;;
37805;SDS011;25082;50.870;0.022;2024-02-28T10:20:33;43.67;;;5.00;;
37805;SDS011;25082;50.870;0.022;2024-02-28T10:23:03;34.00;;;4.90;;
37805;SDS011;25082;50.870;0.022;2024-02-28T10:25:41;34.90;;;4.25;;
37805;SDS011;25082;50.870;0.022;2024-02-28T10:28:09;45.50;;;4.22;;
37805;SDS011;25082;50.870;0.022;2024-02-28T10:30:44;27.33;;;3.40;;
37805;SDS011;25082;50.870;0.022;2024-02-28T10:33:13;27.25;;;3.05;;
37805;SDS011;25082;50.870;0.022;2024-02-28T10:35:40;15.82;;;2.65;;
37805;SDS011;25082;50.870;0.022;2024-02-28T10:38:09;23.58;;;3.20;;
37805;SDS011;25082;50.870;0.022;2024-02-28T10:40:42;21.35;;;3.15;;
37805;SDS011;25082;50.870;0.022;2024-02-28T10:43:08;17.27;;;2.60;;
37805;SDS011;25082;50.870;0.022;2024-02-28T10:45:38;24.52;;;2.92;;
37805;SDS011;25082;50.870;0.022;2024-02-28T10:48:04;18.15;;;2.33;;
37805;SDS011;25082;50.870;0.022;2024-02-28T10:50:31;20.83;;;2.40;;
37805;SDS011;25082;50.870;0.022;2024-02-28T10:53:00;23.55;;;2.58;;
37805;SDS011;25082;50.870;0.022;2024-02-28T10:55:30;12.82;;;2.22;;
37805;SDS011;25082;50.870;0.022;2024-02-28T10:58:02;13.80;;;2.00;;
37805;SDS011;25082;50.870;0.022;2024-02-28T11:00:32;12.13;;;2.25;;
37805;SDS011;25082;50.870;0.022;2024-02-28T11:03:00;11.85;;;1.58;;
37805;SDS011;25082;50.870;0.022;2024-02-28T11:05:38;16.15;;;2.28;;
37805;SDS011;25082;50.870;0.022;2024-02-28T11:08:27;17.65;;;2.17;;
37805;SDS011;25082;50.870;0.022;2024-02-28T11:10:55;15.95;;;1.92;;
37805;SDS011;25082;50.870;0.022;2024-02-28T11:13:27;12.05;;;1.65;;
37805;SDS011;25082;50.870;0.022;2024-02-28T11:15:53;11.73;;;1.67;;
37805;SDS011;25082;50.870;0.022;2024-02-28T11:18:22;6.82;;;1.35;;
37805;SDS011;25082;50.870;0.022;2024-02-28T11:20:48;7.32;;;1.65;;
37805;SDS011;25082;50.870;0.022;2024-02-28T11:23:17;15.00;;;1.83;;
37805;SDS011;25082;50.870;0.022;2024-02-28T11:25:43;9.43;;;1.35;;
37805;SDS011;25082;50.870;0.022;2024-02-28T11:28:09;14.32;;;1.88;;
37805;SDS011;25082;50.870;0.022;2024-02-28T11:30:35;19.05;;;2.42;;
37805;SDS011;25082;50.870;0.022;2024-02-28T11:33:01;12.40;;;1.90;;
37805;SDS011;25082;50.870;0.022;2024-02-28T11:35:27;21.77;;;2.97;;
37805;SDS011;25082;50.870;0.022;2024-02-28T11:37:56;36.10;;;5.10;;
37805;SDS011;25082;50.870;0.022;2024-02-28T11:40:24;28.60;;;4.03;;
37805;SDS011;25082;50.870;0.022;2024-02-28T11:42:52;31.17;;;3.60;;
37805;SDS011;25082;50.870;0.022;2024-02-28T11:45:18;43.58;;;4.40;;
37805;SDS011;25082;50.870;0.022;2024-02-28T11:47:44;19.00;;;3.13;;
37805;SDS011;25082;50.870;0.022;2024-02-28T11:50:10;23.63;;;2.97;;
37805;SDS011;25082;50.870;0.022;2024-02-28T11:52:36;25.38;;;3.90;;
37805;SDS011;25082;50.870;0.022;2024-02-28T11:55:02;13.55;;;2.83;;
37805;SDS011;25082;50.870;0.022;2024-02-28T11:57:29;16.02;;;2.70;;
37805;SDS011;25082;50.870;0.022;2024-02-28T12:00:01;18.35;;;3.10;;
37805;SDS011;25082;50.870;0.022;2024-02-28T12:02:39;17.60;;;2.80;;
37805;SDS011;25082;50.870;0.022;2024-02-28T12:05:05;42.13;;;2.83;;
37805;SDS011;25082;50.870;0.022;2024-02-28T12:07:31;20.67;;;2.90;;
37805;SDS011;25082;50.870;0.022;2024-02-28T12:10:00;17.45;;;2.65;;
37805;SDS011;25082;50.870;0.022;2024-02-28T12:12:28;16.40;;;2.13;;
37805;SDS011;25082;50.870;0.022;2024-02-28T12:14:58;16.77;;;2.58;;
37805;SDS011;25082;50.870;0.022;2024-02-28T12:17:30;7.40;;;1.63;;
37805;SDS011;25082;50.870;0.022;2024-02-28T12:19:59;10.20;;;1.70;;
37805;SDS011;25082;50.870;0.022;2024-02-28T12:22:25;7.93;;;1.90;;
37805;SDS011;25082;50.870;0.022;2024-02-28T12:24:51;9.27;;;2.08;;
37805;SDS011;25082;50.870;0.022;2024-02-28T12:27:17;9.75;;;1.38;;
37805;SDS011;25082;50.870;0.022;2024-02-28T12:29:43;6.22;;;1.65;;
37805;SDS011;25082;50.870;0.022;2024-02-28T12:32:09;4.97;;;1.33;;
37805;SDS011;25082;50.870;0.022;2024-02-28T12:34:35;5.03;;;1.40;;
37805;SDS011;25082;50.870;0.022;2024-02-28T12:37:01;9.05;;;1.40;;
37805;SDS011;25082;50.870;0.022;2024-02-28T12:39:27;4.50;;;1.02;;
37805;SDS011;25082;50.870;0.022;2024-02-28T12:41:53;7.40;;;1.63;;
37805;SDS011;25082;50.870;0.022;2024-02-28T12:44:19;9.27;;;1.80;;
37805;SDS011;25082;50.870;0.022;2024-02-28T12:46:45;9.63;;;1.83;;
37805;SDS011;25082;50.870;0.022;2024-02-28T12:49:11;6.95;;;1.52;;
37805;SDS011;25082;50.870;0.022;2024-02-28T12:51:43;15.90;;;2.10;;
37805;SDS011;25082;50.870;0.022;2024-02-28T12:54:11;15.98;;;2.30;;
37805;SDS011;25082;50.870;0.022;2024-02-28T12:56:41;11.90;;;2.30;;
37805;SDS011;25082;50.870;0.022;2024-02-28T12:59:10;7.53;;;1.70;;
37805;SDS011;25082;50.870;0.022;2024-02-28T13:01:36;13.10;;;2.55;;
37805;SDS011;25082;50.870;0.022;2024-02-28T13:04:02;20.67;;;3.13;;
37805;SDS011;25082;50.870;0.022;2024-02-28T13:06:29;14.60;;;2.60;;
37805;SDS011;25082;50.870;0.022;2024-02-28T13:08:54;20.42;;;3.20;;
37805;SDS011;25082;50.870;0.022;2024-02-28T13:11:23;26.63;;;4.38;;
37805;SDS011;25082;50.870;0.022;2024-02-28T13:13:50;20.55;;;2.95;;
37805;SDS011;25082;50.870;0.022;2024-02-28T13:16:17;18.77;;;3.15;;
37805;SDS011;25082;50.870;0.022;2024-02-28T13:18:44;23.42;;;4.18;;
37805;SDS011;25082;50.870;0.022;2024-02-28T13:21:10;21.63;;;3.67;;
37805;SDS011;25082;50.870;0.022;2024-02-28T13:23:36;16.92;;;3.63;;
37805;SDS011;25082;50.870;0.022;2024-02-28T13:26:03;18.45;;;3.25;;
37805;SDS011;25082;50.870;0.022;2024-02-28T13:28:29;19.02;;;3.13;;
37805;SDS011;25082;50.870;0.022;2024-02-28T13:30:56;21.85;;;3.60;;
37805;SDS011;25082;50.870;0.022;2024-02-28T13:33:23;23.67;;;2.92;;
37805;SDS011;25082;50.870;0.022;2024-02-28T13:35:49;15.93;;;3.13;;
37805;SDS011;25082;50.870;0.022;2024-02-28T13:38:15;11.27;;;3.03;;
37805;SDS011;25082;50.870;0.022;2024-02-28T13:40:41;20.08;;;3.45;;
37805;SDS011;25082;50.870;0.022;2024-02-28T13:43:10;22.42;;;3.88;;
37805;SDS011;25082;50.870;0.022;2024-02-28T13:45:37;28.73;;;5.25;;
37805;SDS011;25082;50.870;0.022;2024-02-28T13:48:14;27.95;;;4.07;;
37805;SDS011;25082;50.870;0.022;2024-02-28T13:50:44;24.83;;;3.45;;
37805;SDS011;25082;50.870;0.022;2024-02-28T13:53:10;18.40;;;2.72;;
37805;SDS011;25082;50.870;0.022;2024-02-28T13:55:37;15.57;;;2.60;;
37805;SDS011;25082;50.870;0.022;2024-02-28T13:58:04;16.10;;;2.78;;
37805;SDS011;25082;50.870;0.022;2024-02-28T14:00:30;24.80;;;5.50;;
37805;SDS011;25082;50.870;0.022;2024-02-28T14:02:56;26.92;;;4.25;;
37805;SDS011;25082;50.870;0.022;2024-02-28T14:05:22;43.08;;;5.78;;
37805;SDS011;25082;50.870;0.022;2024-02-28T14:07:47;49.90;;;6.72;;
37805;SDS011;25082;50.870;0.022;2024-02-28T14:10:14;30.90;;;5.68;;
37805;SDS011;25082;50.870;0.022;2024-02-28T14:12:41;30.15;;;4.15;;
37805;SDS011;25082;50.870;0.022;2024-02-28T14:15:07;19.52;;;3.33;;
37805;SDS011;25082;50.870;0.022;2024-02-28T14:17:36;32.63;;;5.38;;
37805;SDS011;25082;50.870;0.022;2024-02-28T14:20:03;21.25;;;3.53;;
37805;SDS011;25082;50.870;0.022;2024-02-28T14:22:30;21.08;;;3.15;;
37805;SDS011;25082;50.870;0.022;2024-02-28T14:24:55;23.23;;;4.00;;
37805;SDS011;25082;50.870;0.022;2024-02-28T14:27:21;21.58;;;3.22;;
37805;SDS011;25082;50.870;0.022;2024-02-28T14:29:47;22.13;;;3.70;;
37805;SDS011;25082;50.870;0.022;2024-02-28T14:32:15;19.48;;;3.10;;
37805;SDS011;25082;50.870;0.022;2024-02-28T14:34:41;17.33;;;2.70;;
37805;SDS011;25082;50.870;0.022;2024-02-28T14:37:07;28.23;;;3.70;;
37805;SDS011;25082;50.870;0.022;2024-02-28T14:39:33;18.20;;;3.90;;